Sempre Avanti — WDF2796 — position and weather

sailwx.info

Track history (hours):
 
Tides and Currents Weather Stations Pressure Air Temp Water Temp Dewpoint Dewpoint Depression Visibility Wind Speed Wind Dir Waves Ship Positions

Sempre Avanti

Owner: Tringali Mr., Salvatore, Salinas, CA. More information available from US FCC via Universal Licensing System and Coast Guard Vessel Documentation Center.

Last reported at 2017-Oct-26 21:31 UTC. Time now 2017-Nov-24 22:07 UTC.
Position N 33°43' W 118°17'.
Warning: this ship's position is 29 days out of date.

Length 16 m.

Type: Pleasure craft. MMSI: 367432010.

Date/timePositionNaut miles runAvg speedWind from/ knotsBaromVisibWave heightAir tempDewpointWater temp
2017-Oct-26 21:31N 33°43' W 118°17'0 0.0
2017-Oct-26 21:30N 33°43' W 118°17'510.1
2017-Oct-26 21:00N 33°44' W 118°11'2 1.9
2017-Oct-26 20:10N 33°46' W 118°11'0 0.0
2017-Oct-26 19:58N 33°46' W 118°11'0 0.0
2017-Oct-26 19:30N 33°46' W 118°11'4 8.1
2017-Oct-26 19:00N 33°43' W 118°15'2 2.3
2017-Oct-26 18:17N 33°44' W 118°17'1 1.8
2017-Oct-26 18:00N 33°43' W 118°16'  
2017-Oct-23 00:24N 33°43' W 118°17'3 5.3
2017-Oct-22 23:47N 33°46' W 118°15'2 5.6
2017-Oct-22 23:23N 33°44' W 118°17'7 1.3
2017-Oct-22 17:48N 33°41' W 118°09'516.1
2017-Oct-22 17:30N 33°42' W 118°14'  
Track history (hours):
 
Tides and Currents Weather Stations Pressure Air Temp Water Temp Dewpoint Dewpoint Depression Visibility Wind Speed Wind Dir Waves Ship Positions

Sempre Avanti

Owner: Tringali Mr., Salvatore, Salinas, CA. More information available from US FCC via Universal Licensing System and Coast Guard Vessel Documentation Center.

Last reported at 2017-Oct-26 21:31 UTC. Time now 2017-Nov-24 22:07 UTC.
Position N 33°43' W 118°17'.
Warning: this ship's position is 29 days out of date.

Length 16 m.

Type: Pleasure craft. MMSI: 367432010.

Date/timePositionNaut miles runAvg speedWind from/ knotsBaromVisibWave heightAir tempDewpointWater temp
2017-Oct-26 21:31N 33°43' W 118°17'0 0.0
2017-Oct-26 21:30N 33°43' W 118°17'510.1
2017-Oct-26 21:00N 33°44' W 118°11'2 1.9
2017-Oct-26 20:10N 33°46' W 118°11'0 0.0
2017-Oct-26 19:58N 33°46' W 118°11'0 0.0
2017-Oct-26 19:30N 33°46' W 118°11'4 8.1
2017-Oct-26 19:00N 33°43' W 118°15'2 2.3
2017-Oct-26 18:17N 33°44' W 118°17'1 1.8
2017-Oct-26 18:00N 33°43' W 118°16'  
2017-Oct-23 00:24N 33°43' W 118°17'3 5.3
2017-Oct-22 23:47N 33°46' W 118°15'2 5.6
2017-Oct-22 23:23N 33°44' W 118°17'7 1.3
2017-Oct-22 17:48N 33°41' W 118°09'516.1
2017-Oct-22 17:30N 33°42' W 118°14'  

Dump ship's entire track history